Time;durP1;ratioP1;P1;durP2;ratioP2;P2;SDS_P1;SDS_P2;PMS_P1;PMS_P2;Temp;Humidity;BMP_temperature;BMP_pressure;BME280_temperature;BME280_humidity;BME280_pressure;Samples;Min_cycle;Max_cycle;Signal;HPM_P1;HPM_P2
2022/12/18 00:00:43;;;;;;;;;;;22.90;77.50;;;;;;5096935;28;19914;-50
2022/12/18 00:03:09;;;;;;;;;;;22.90;77.60;;;;;;5096911;28;19934;-47
2022/12/18 00:05:34;;;;;;;;;;;22.90;77.60;;;;;;5095404;28;20015;-53
2022/12/18 00:08:00;;;;;;;;;;;22.90;77.60;;;;;;5096543;28;19908;-54
2022/12/18 00:10:26;;;;;;;;;;;22.80;77.70;;;;;;5096346;28;19908;-52
2022/12/18 00:12:52;;;;;;;;;;;22.80;77.70;;;;;;5096829;28;19908;-51
2022/12/18 00:15:17;;;;;;;;;;;22.80;77.70;;;;;;5095690;28;20252;-48
2022/12/18 00:17:43;;;;;;;;;;;22.80;77.90;;;;;;5096623;28;19958;-50
2022/12/18 00:20:08;;;;;;;;;;;22.80;77.90;;;;;;5096316;28;19983;-52
2022/12/18 00:22:34;;;;;;;;;;;22.80;78.00;;;;;;5078538;28;20002;-51
2022/12/18 00:24:59;;;;;;;;;;;22.80;77.90;;;;;;5095463;28;19916;-49
2022/12/18 00:27:25;;;;;;;;;;;22.80;78.00;;;;;;5096362;28;19951;-51
2022/12/18 00:29:50;;;;;;;;;;;22.80;77.90;;;;;;5096112;28;20248;-48
2022/12/18 00:32:16;;;;;;;;;;;22.80;78.00;;;;;;5096436;28;19962;-52
2022/12/18 00:34:41;;;;;;;;;;;22.80;78.00;;;;;;5061838;28;20375;-53
2022/12/18 00:37:07;;;;;;;;;;;22.80;78.00;;;;;;5094202;28;20015;-52
2022/12/18 00:39:32;;;;;;;;;;;22.80;77.90;;;;;;5076414;28;20461;-47
2022/12/18 00:44:42;;;;;;;;;;;22.80;77.90;;;;;;5093227;28;20425;-49
2022/12/18 00:47:07;;;;;;;;;;;22.90;77.70;;;;;;5090832;28;19920;-52
2022/12/18 00:49:33;;;;;;;;;;;22.90;77.70;;;;;;5089063;28;19912;-50
2022/12/18 00:51:58;;;;;;;;;;;23.00;77.70;;;;;;5090845;28;19916;-54
2022/12/18 00:54:24;;;;;;;;;;;23.10;77.70;;;;;;5094196;28;19915;-54
2022/12/18 00:56:49;;;;;;;;;;;23.10;77.50;;;;;;5094224;28;20305;-53
2022/12/18 00:59:15;;;;;;;;;;;23.20;77.40;;;;;;5094460;28;19915;-53
2022/12/18 01:01:41;;;;;;;;;;;22.20;67.80;;;;;;5090254;28;19920;-50
2022/12/18 01:04:06;;;;;;;;;;;22.50;72.60;;;;;;5093805;28;19912;-50
2022/12/18 01:06:32;;;;;;;;;;;22.70;74.70;;;;;;5095464;28;19939;-52
2022/12/18 01:08:57;;;;;;;;;;;22.80;75.70;;;;;;5086765;28;19912;-54
2022/12/18 01:11:23;;;;;;;;;;;22.90;76.00;;;;;;5091124;28;19919;-50
2022/12/18 01:13:48;;;;;;;;;;;22.90;76.30;;;;;;5093749;28;19917;-53
2022/12/18 01:16:15;;;;;;;;;;;23.00;76.30;;;;;;5074335;28;19912;-53
2022/12/18 01:18:41;;;;;;;;;;;23.00;76.40;;;;;;5087732;28;20412;-51
2022/12/18 01:21:07;;;;;;;;;;;23.00;76.40;;;;;;5091844;28;19908;-52
2022/12/18 01:23:33;;;;;;;;;;;23.00;76.30;;;;;;5093834;28;19908;-50
2022/12/18 01:26:03;;;;;;;;;;;23.00;76.40;;;;;;5093965;28;19997;-50
2022/12/18 01:28:28;;;;;;;;;;;23.00;76.60;;;;;;5074253;28;19920;-48
2022/12/18 01:30:54;;;;;;;;;;;23.00;76.60;;;;;;5093990;28;20412;-50
2022/12/18 01:33:19;;;;;;;;;;;23.00;76.70;;;;;;5091758;28;19912;-50
2022/12/18 01:35:45;;;;;;;;;;;23.00;76.50;;;;;;5091080;28;19920;-49
2022/12/18 01:38:10;;;;;;;;;;;23.00;76.80;;;;;;5091873;28;19919;-48
2022/12/18 01:40:36;;;;;;;;;;;23.00;76.90;;;;;;5093574;28;19953;-51
2022/12/18 01:43:01;;;;;;;;;;;23.00;77.00;;;;;;5092744;28;19916;-53
2022/12/18 01:45:28;;;;;;;;;;;23.00;77.00;;;;;;5091700;28;20259;-54
2022/12/18 01:48:06;;;;;;;;;;;22.90;77.00;;;;;;5074873;28;19916;-50
2022/12/18 01:50:39;;;;;;;;;;;23.00;77.00;;;;;;5093335;28;20243;-49
2022/12/18 01:53:04;;;;;;;;;;;23.00;77.00;;;;;;5089874;28;19913;-49
2022/12/18 01:55:32;;;;;;;;;;;23.00;77.00;;;;;;5093555;28;19908;-50
2022/12/18 01:57:58;;;;;;;;;;;23.00;77.00;;;;;;5089066;28;19909;-53
2022/12/18 02:00:25;;;;;;;;;;;23.10;76.90;;;;;;5092829;28;20005;-51
2022/12/18 02:02:50;;;;;;;;;;;23.10;76.90;;;;;;5073348;28;19978;-52
2022/12/18 02:05:27;;;;;;;;;;;23.10;76.90;;;;;;5092306;28;19959;-53
2022/12/18 02:08:08;;;;;;;;;;;23.10;76.90;;;;;;5092954;28;19971;-52
2022/12/18 02:10:38;;;;;;;;;;;23.00;76.80;;;;;;5092463;28;19912;-50
2022/12/18 02:13:13;;;;;;;;;;;23.10;77.00;;;;;;5091274;28;19908;-52
2022/12/18 02:16:00;;;;;;;;;;;23.10;77.10;;;;;;5092461;28;19961;-50
2022/12/18 02:18:29;;;;;;;;;;;23.00;77.10;;;;;;5092480;28;20270;-51
2022/12/18 02:21:08;;;;;;;;;;;23.00;77.10;;;;;;5092455;28;20286;-50
2022/12/18 02:23:37;;;;;;;;;;;23.00;77.00;;;;;;5075133;28;19923;-50
2022/12/18 02:26:05;;;;;;;;;;;23.10;77.20;;;;;;5094399;28;19938;-50
2022/12/18 02:28:34;;;;;;;;;;;23.10;77.10;;;;;;5094374;28;20370;-49
2022/12/18 02:31:01;;;;;;;;;;;23.10;77.10;;;;;;5093945;28;19915;-49
2022/12/18 02:33:27;;;;;;;;;;;23.10;77.20;;;;;;5094229;28;19908;-51
2022/12/18 02:35:54;;;;;;;;;;;23.00;77.10;;;;;;5092315;28;20359;-53
2022/12/18 02:38:19;;;;;;;;;;;23.10;77.20;;;;;;5094206;28;19920;-53
2022/12/18 02:40:45;;;;;;;;;;;23.00;77.20;;;;;;5093825;28;19908;-52
2022/12/18 02:43:12;;;;;;;;;;;23.00;77.20;;;;;;5094216;28;19908;-51
2022/12/18 02:46:07;;;;;;;;;;;23.10;77.30;;;;;;5074918;28;20363;-51
2022/12/18 02:48:33;;;;;;;;;;;23.10;77.10;;;;;;5021688;28;19921;-50
2022/12/18 02:51:22;;;;;;;;;;;23.00;77.30;;;;;;5094155;28;19912;-53
2022/12/18 02:53:57;;;;;;;;;;;23.00;77.40;;;;;;5093416;28;20271;-48
2022/12/18 02:56:31;;;;;;;;;;;23.00;77.30;;;;;;5091622;28;19955;-51
2022/12/18 02:59:05;;;;;;;;;;;23.00;77.40;;;;;;5076394;28;19957;-52
2022/12/18 03:01:38;;;;;;;;;;;23.00;77.20;;;;;;5091822;28;19919;-53
2022/12/18 03:04:14;;;;;;;;;;;23.10;77.20;;;;;;5093903;28;19961;-51
2022/12/18 03:06:43;;;;;;;;;;;23.10;77.10;;;;;;5093129;28;19923;-52
2022/12/18 03:09:18;;;;;;;;;;;22.90;77.10;;;;;;5093671;28;20065;-51
2022/12/18 03:14:32;;;;;;;;;;;22.90;77.60;;;;;;5095424;28;19915;-50
2022/12/18 03:16:59;;;;;;;;;;;22.80;77.70;;;;;;5096937;28;19923;-52
2022/12/18 03:19:27;;;;;;;;;;;22.80;77.70;;;;;;5079826;28;19912;-50
2022/12/18 03:21:54;;;;;;;;;;;22.70;77.90;;;;;;5097814;28;19915;-53
2022/12/18 03:24:20;;;;;;;;;;;22.70;77.90;;;;;;5097645;28;19985;-52
2022/12/18 03:26:47;;;;;;;;;;;22.70;77.90;;;;;;5097331;28;19986;-51
2022/12/18 03:29:14;;;;;;;;;;;22.70;78.00;;;;;;5094054;28;19912;-53
2022/12/18 03:31:42;;;;;;;;;;;22.70;77.90;;;;;;5095772;28;19912;-49
2022/12/18 03:34:17;;;;;;;;;;;22.70;78.00;;;;;;5097271;28;20263;-52
2022/12/18 03:36:43;;;;;;;;;;;22.70;78.00;;;;;;5097239;28;19908;-50
2022/12/18 03:39:09;;;;;;;;;;;22.70;78.00;;;;;;5076240;28;19916;-52
2022/12/18 03:41:40;;;;;;;;;;;22.80;78.00;;;;;;5097175;28;19947;-50
2022/12/18 03:44:12;;;;;;;;;;;22.70;77.60;;;;;;5097373;28;19922;-52
2022/12/18 03:46:47;;;;;;;;;;;22.80;77.60;;;;;;5096987;28;19923;-51
2022/12/18 03:49:15;;;;;;;;;;;22.90;77.60;;;;;;5096495;28;19912;-47
2022/12/18 03:51:48;;;;;;;;;;;22.90;77.60;;;;;;5096862;28;19915;-52
2022/12/18 03:54:14;;;;;;;;;;;23.00;77.40;;;;;;5078984;28;20347;-51
2022/12/18 03:56:41;;;;;;;;;;;23.10;77.30;;;;;;5097049;28;19970;-53
2022/12/18 03:59:08;;;;;;;;;;;23.20;77.20;;;;;;5095837;28;19912;-49
2022/12/18 04:01:37;;;;;;;;;;;23.20;76.80;;;;;;5078820;28;19974;-52
2022/12/18 04:04:03;;;;;;;;;;;23.30;76.70;;;;;;5096823;28;20239;-50
2022/12/18 04:06:29;;;;;;;;;;;23.30;76.70;;;;;;5096595;28;20279;-50
2022/12/18 04:08:56;;;;;;;;;;;23.30;76.70;;;;;;5095189;28;19930;-53
2022/12/18 04:11:21;;;;;;;;;;;23.30;76.70;;;;;;5096366;28;20359;-53
2022/12/18 04:13:47;;;;;;;;;;;23.30;76.70;;;;;;5096558;28;19947;-50
2022/12/18 04:16:12;;;;;;;;;;;23.30;76.70;;;;;;5096517;28;19998;-51
2022/12/18 04:18:38;;;;;;;;;;;23.30;76.90;;;;;;5096481;28;20294;-51
2022/12/18 04:21:03;;;;;;;;;;;23.20;76.90;;;;;;5095593;28;20002;-51
2022/12/18 04:23:29;;;;;;;;;;;23.20;77.00;;;;;;5078495;28;19912;-50
2022/12/18 04:25:54;;;;;;;;;;;23.10;76.90;;;;;;5095771;28;19916;-50
2022/12/18 04:28:20;;;;;;;;;;;23.10;77.10;;;;;;5094880;28;20263;-49
2022/12/18 04:30:48;;;;;;;;;;;23.00;77.10;;;;;;5096611;28;19908;-51
2022/12/18 04:33:17;;;;;;;;;;;23.00;77.30;;;;;;5077981;28;19978;-49
2022/12/18 04:35:42;;;;;;;;;;;22.90;77.30;;;;;;5096478;28;19912;-49
2022/12/18 04:38:08;;;;;;;;;;;22.90;77.30;;;;;;5094440;28;20009;-51
2022/12/18 04:40:34;;;;;;;;;;;23.00;77.50;;;;;;5096187;28;20278;-52
2022/12/18 04:42:59;;;;;;;;;;;22.90;77.30;;;;;;5096122;28;19915;-51
2022/12/18 04:45:25;;;;;;;;;;;23.00;77.50;;;;;;5096175;28;20416;-49
2022/12/18 04:47:50;;;;;;;;;;;23.00;77.50;;;;;;5078108;28;19909;-48
2022/12/18 04:50:16;;;;;;;;;;;23.00;77.40;;;;;;5094419;28;20326;-50
2022/12/18 04:52:41;;;;;;;;;;;23.00;77.30;;;;;;5078022;28;19915;-51
2022/12/18 04:55:07;;;;;;;;;;;23.10;77.30;;;;;;5095830;28;19954;-50
2022/12/18 04:57:32;;;;;;;;;;;23.10;77.30;;;;;;5096129;28;19912;-51
2022/12/18 04:59:58;;;;;;;;;;;23.10;77.30;;;;;;5095045;28;19916;-50
2022/12/18 05:02:23;;;;;;;;;;;23.10;77.10;;;;;;5095940;28;19922;-50
2022/12/18 05:04:48;;;;;;;;;;;23.20;77.10;;;;;;5096073;28;20317;-50
2022/12/18 05:07:14;;;;;;;;;;;23.20;77.00;;;;;;5096045;28;19908;-52
2022/12/18 05:09:40;;;;;;;;;;;23.20;76.90;;;;;;5076919;28;19912;-51
2022/12/18 05:12:05;;;;;;;;;;;23.30;76.80;;;;;;5095444;28;19909;-53
2022/12/18 05:14:30;;;;;;;;;;;23.30;76.90;;;;;;5095428;28;20275;-51
2022/12/18 05:16:56;;;;;;;;;;;23.30;76.90;;;;;;5095549;28;19954;-50
2022/12/18 05:19:21;;;;;;;;;;;23.20;76.80;;;;;;5094631;28;19931;-51
2022/12/18 05:21:47;;;;;;;;;;;23.20;76.90;;;;;;5095492;28;19994;-51
2022/12/18 05:24:12;;;;;;;;;;;23.20;76.90;;;;;;5095519;28;19915;-52
2022/12/18 05:26:38;;;;;;;;;;;23.20;77.00;;;;;;5095504;28;19927;-49
2022/12/18 05:29:03;;;;;;;;;;;23.20;77.10;;;;;;5075862;28;20350;-51
2022/12/18 05:31:29;;;;;;;;;;;23.10;77.10;;;;;;5095100;28;20309;-52
2022/12/18 05:33:54;;;;;;;;;;;23.10;77.10;;;;;;5095064;28;19908;-52
2022/12/18 05:36:20;;;;;;;;;;;23.10;77.20;;;;;;5095612;28;19981;-51
2022/12/18 05:38:45;;;;;;;;;;;23.00;77.20;;;;;;5093165;28;20387;-53
2022/12/18 05:41:11;;;;;;;;;;;23.10;77.30;;;;;;5095158;28;20266;-54
2022/12/18 05:43:37;;;;;;;;;;;23.10;77.30;;;;;;5095249;28;19908;-51
2022/12/18 05:46:11;;;;;;;;;;;23.00;77.30;;;;;;5094825;28;19916;-50
2022/12/18 05:48:37;;;;;;;;;;;23.10;77.40;;;;;;5093918;28;19983;-53
2022/12/18 05:51:06;;;;;;;;;;;23.10;77.30;;;;;;5093309;28;19923;-52
2022/12/18 05:53:32;;;;;;;;;;;23.10;77.50;;;;;;5095035;28;19908;-50
2022/12/18 05:56:02;;;;;;;;;;;23.10;77.40;;;;;;5094748;28;20410;-53
2022/12/18 05:58:27;;;;;;;;;;;23.10;77.30;;;;;;5094711;28;19911;-52
2022/12/18 06:00:52;;;;;;;;;;;23.10;77.30;;;;;;5091808;28;19919;-50
2022/12/18 06:03:18;;;;;;;;;;;23.20;77.20;;;;;;5094857;28;19912;-54
2022/12/18 06:05:44;;;;;;;;;;;23.20;77.10;;;;;;5094656;28;19923;-51
2022/12/18 06:08:10;;;;;;;;;;;23.20;77.10;;;;;;5094907;28;19915;-52
2022/12/18 06:10:36;;;;;;;;;;;23.20;77.00;;;;;;5075599;28;19927;-51
2022/12/18 06:13:01;;;;;;;;;;;23.30;76.90;;;;;;5076766;28;19912;-49
2022/12/18 06:15:27;;;;;;;;;;;23.30;76.90;;;;;;5076485;28;20004;-51
2022/12/18 06:17:52;;;;;;;;;;;23.30;77.00;;;;;;5094250;28;19909;-50
2022/12/18 06:20:18;;;;;;;;;;;23.20;77.00;;;;;;5094557;28;20243;-52
2022/12/18 06:22:44;;;;;;;;;;;23.20;77.00;;;;;;5093404;28;19916;-54
2022/12/18 06:25:09;;;;;;;;;;;23.20;77.10;;;;;;5094015;28;19923;-50
2022/12/18 06:27:35;;;;;;;;;;;23.20;77.20;;;;;;5091990;28;19934;-53
2022/12/18 06:30:01;;;;;;;;;;;23.10;77.10;;;;;;5076262;28;19934;-51
2022/12/18 06:32:26;;;;;;;;;;;23.10;77.20;;;;;;5093980;28;19908;-49
2022/12/18 06:34:53;;;;;;;;;;;23.10;77.40;;;;;;5075763;28;19915;-51
2022/12/18 06:37:18;;;;;;;;;;;23.10;77.40;;;;;;5094079;28;19989;-51
2022/12/18 06:39:44;;;;;;;;;;;23.00;77.50;;;;;;5092715;28;20422;-50
2022/12/18 06:42:09;;;;;;;;;;;23.00;77.60;;;;;;5094235;28;20012;-52
2022/12/18 06:44:35;;;;;;;;;;;23.00;77.40;;;;;;5093936;28;20057;-49
2022/12/18 06:47:00;;;;;;;;;;;23.00;77.60;;;;;;5094223;28;20239;-52
2022/12/18 06:49:26;;;;;;;;;;;23.00;77.50;;;;;;5095477;28;19912;-52
2022/12/18 06:51:51;;;;;;;;;;;23.00;77.50;;;;;;5100867;28;20335;-49
2022/12/18 06:54:17;;;;;;;;;;;23.00;77.50;;;;;;5101101;28;19912;-52
2022/12/18 06:56:44;;;;;;;;;;;23.00;77.40;;;;;;5100536;28;19908;-52
2022/12/18 06:59:10;;;;;;;;;;;23.00;77.40;;;;;;5099682;28;19912;-54
2022/12/18 07:01:35;;;;;;;;;;;23.00;77.40;;;;;;5101064;28;19966;-51
2022/12/18 07:04:01;;;;;;;;;;;23.10;77.30;;;;;;5100401;28;19916;-50
2022/12/18 07:06:26;;;;;;;;;;;23.10;77.50;;;;;;5100198;28;19985;-54
2022/12/18 07:08:53;;;;;;;;;;;23.10;77.30;;;;;;5099405;28;19924;-52
2022/12/18 07:11:19;;;;;;;;;;;23.10;77.30;;;;;;5100300;28;20376;-51
2022/12/18 07:13:45;;;;;;;;;;;23.20;77.20;;;;;;5100522;28;19943;-51
2022/12/18 07:16:12;;;;;;;;;;;23.20;77.10;;;;;;5100460;28;19999;-49
2022/12/18 07:18:38;;;;;;;;;;;23.30;77.60;;;;;;5099192;28;19912;-49
2022/12/18 07:21:05;;;;;;;;;;;23.30;77.10;;;;;;5100523;28;20338;-51
2022/12/18 07:23:31;;;;;;;;;;;23.30;76.90;;;;;;5100991;28;19908;-50
2022/12/18 07:26:00;;;;;;;;;;;23.30;77.00;;;;;;5100361;28;20031;-52
2022/12/18 07:28:25;;;;;;;;;;;23.20;77.00;;;;;;5099155;28;19912;-48
2022/12/18 07:30:51;;;;;;;;;;;23.20;76.80;;;;;;5100640;28;19912;-53
2022/12/18 07:33:16;;;;;;;;;;;23.10;77.10;;;;;;5100546;28;19909;-49
2022/12/18 07:35:42;;;;;;;;;;;23.10;77.10;;;;;;5082347;28;19908;-50
2022/12/18 07:38:07;;;;;;;;;;;23.00;77.30;;;;;;5099074;28;20003;-52
2022/12/18 07:40:33;;;;;;;;;;;23.00;77.40;;;;;;5100473;28;19915;-50
2022/12/18 07:42:58;;;;;;;;;;;23.00;77.60;;;;;;5100377;28;20294;-54
2022/12/18 07:45:24;;;;;;;;;;;23.00;77.70;;;;;;5082006;28;19916;-50
2022/12/18 07:47:49;;;;;;;;;;;22.90;77.60;;;;;;5099314;28;19919;-49
2022/12/18 07:50:15;;;;;;;;;;;22.90;77.60;;;;;;5100103;28;20313;-50
2022/12/18 07:52:40;;;;;;;;;;;22.90;77.80;;;;;;5100264;28;19908;-50
2022/12/18 07:55:06;;;;;;;;;;;22.90;78.00;;;;;;5100194;28;20006;-52
2022/12/18 07:57:31;;;;;;;;;;;22.80;77.90;;;;;;5100277;28;20370;-53
2022/12/18 07:59:57;;;;;;;;;;;22.80;78.00;;;;;;5098521;28;20366;-50
2022/12/18 08:02:22;;;;;;;;;;;22.70;78.10;;;;;;5094186;28;19920;-50
2022/12/18 08:04:47;;;;;;;;;;;22.80;78.10;;;;;;5096699;28;20354;-53
2022/12/18 08:07:13;;;;;;;;;;;22.70;78.10;;;;;;5096979;28;19911;-48
2022/12/18 08:09:38;;;;;;;;;;;22.80;78.20;;;;;;5096955;28;19981;-52
2022/12/18 08:12:04;;;;;;;;;;;22.80;78.10;;;;;;5095771;28;19922;-48
2022/12/18 08:14:29;;;;;;;;;;;22.80;78.20;;;;;;5096774;28;19908;-51
2022/12/18 08:16:55;;;;;;;;;;;22.80;78.20;;;;;;5096324;28;20282;-51
2022/12/18 08:19:20;;;;;;;;;;;22.80;78.10;;;;;;5096463;28;19915;-49
2022/12/18 08:21:46;;;;;;;;;;;22.80;78.10;;;;;;5095118;28;20252;-51
2022/12/18 08:24:11;;;;;;;;;;;22.80;78.00;;;;;;5096373;28;19908;-48
2022/12/18 08:26:37;;;;;;;;;;;22.80;78.10;;;;;;5078287;28;20012;-53
2022/12/18 08:29:02;;;;;;;;;;;22.80;78.10;;;;;;5096412;28;19916;-50
2022/12/18 08:31:29;;;;;;;;;;;22.90;78.00;;;;;;5096507;28;20088;-48
2022/12/18 08:33:54;;;;;;;;;;;22.90;77.80;;;;;;5094681;28;19912;-49
2022/12/18 08:36:20;;;;;;;;;;;23.00;77.90;;;;;;5096378;28;19923;-52
2022/12/18 08:38:46;;;;;;;;;;;23.00;77.70;;;;;;5095804;28;20282;-51
2022/12/18 08:41:12;;;;;;;;;;;23.10;77.80;;;;;;5090287;28;20346;-50
2022/12/18 08:46:23;;;;;;;;;;;23.20;77.30;;;;;;5093155;28;19978;-48
2022/12/18 08:48:53;;;;;;;;;;;23.30;77.00;;;;;;5094243;28;19962;-50
2022/12/18 08:51:18;;;;;;;;;;;23.30;77.10;;;;;;5091590;28;19948;-49
2022/12/18 08:53:44;;;;;;;;;;;23.30;77.00;;;;;;5093917;28;19958;-53
2022/12/18 08:56:10;;;;;;;;;;;23.40;77.00;;;;;;5094507;28;19911;-49
2022/12/18 08:58:35;;;;;;;;;;;23.40;77.10;;;;;;5095677;28;20266;-51
2022/12/18 09:01:02;;;;;;;;;;;23.30;77.00;;;;;;5094091;28;19908;-51
2022/12/18 09:03:27;;;;;;;;;;;23.30;77.10;;;;;;5095579;28;19952;-49
2022/12/18 09:05:53;;;;;;;;;;;23.30;77.10;;;;;;5093604;28;19958;-51
2022/12/18 09:08:18;;;;;;;;;;;23.30;77.10;;;;;;5095303;28;19959;-53
2022/12/18 09:10:45;;;;;;;;;;;23.20;77.20;;;;;;5094976;28;20343;-50
2022/12/18 09:13:11;;;;;;;;;;;23.20;77.20;;;;;;5094192;28;19920;-53
2022/12/18 09:15:40;;;;;;;;;;;23.20;77.30;;;;;;5094760;28;19958;-54
2022/12/18 09:18:06;;;;;;;;;;;23.20;77.20;;;;;;5094382;28;19904;-48
2022/12/18 09:20:31;;;;;;;;;;;23.20;77.30;;;;;;5095524;28;20003;-53
2022/12/18 09:22:56;;;;;;;;;;;23.20;77.40;;;;;;5092801;28;19904;-51
2022/12/18 09:25:22;;;;;;;;;;;23.10;77.30;;;;;;5092946;28;20378;-53
2022/12/18 09:27:48;;;;;;;;;;;23.10;77.40;;;;;;5094002;28;19908;-53
2022/12/18 09:30:13;;;;;;;;;;;23.10;77.50;;;;;;5093920;28;19911;-49
2022/12/18 09:32:39;;;;;;;;;;;23.10;77.50;;;;;;5085823;28;19918;-53
2022/12/18 09:35:04;;;;;;;;;;;23.10;77.50;;;;;;5091754;28;19912;-53
2022/12/18 09:37:30;;;;;;;;;;;23.10;77.50;;;;;;5092463;28;20274;-50
2022/12/18 09:39:55;;;;;;;;;;;23.10;77.60;;;;;;5093599;28;19915;-50
2022/12/18 09:42:21;;;;;;;;;;;23.10;77.60;;;;;;5094964;28;19904;-51
2022/12/18 09:44:53;;;;;;;;;;;23.10;77.60;;;;;;5092809;28;19994;-49
2022/12/18 09:47:19;;;;;;;;;;;23.10;77.80;;;;;;5094976;28;19915;-53
2022/12/18 09:49:46;;;;;;;;;;;23.10;77.60;;;;;;5092936;28;19904;-48
2022/12/18 09:52:14;;;;;;;;;;;23.10;77.60;;;;;;5094105;28;19939;-49
2022/12/18 09:54:43;;;;;;;;;;;23.20;77.60;;;;;;5092971;28;19912;-48
2022/12/18 09:57:20;;;;;;;;;;;23.10;77.30;;;;;;5094652;28;19970;-49
2022/12/18 09:59:50;;;;;;;;;;;23.10;77.50;;;;;;5092052;28;19995;-52
2022/12/18 10:02:18;;;;;;;;;;;23.10;77.70;;;;;;5087179;28;19957;-48
2022/12/18 10:04:46;;;;;;;;;;;23.10;77.70;;;;;;5093791;28;20010;-51
2022/12/18 10:07:17;;;;;;;;;;;23.10;77.60;;;;;;5094585;28;20341;-52
2022/12/18 10:09:57;;;;;;;;;;;23.00;77.50;;;;;;5094618;28;20015;-50
2022/12/18 10:12:46;;;;;;;;;;;22.90;77.60;;;;;;5091638;28;19908;-50
2022/12/18 10:15:19;;;;;;;;;;;22.90;77.70;;;;;;5093108;28;19916;-51
2022/12/18 10:17:45;;;;;;;;;;;22.80;77.90;;;;;;5099540;28;19986;-50
2022/12/18 10:20:10;;;;;;;;;;;22.70;77.50;;;;;;5113814;28;19932;-50
2022/12/18 10:22:42;;;;;;;;;;;22.70;75.00;;;;;;5104296;28;19923;-48
2022/12/18 10:25:17;;;;;;;;;;;22.50;75.70;;;;;;5103016;28;19920;-53
2022/12/18 10:27:42;;;;;;;;;;;22.60;77.50;;;;;;5092215;28;19920;-49
2022/12/18 10:30:20;;;;;;;;;;;22.70;77.80;;;;;;5095113;28;20062;-51
2022/12/18 10:32:46;;;;;;;;;;;22.70;77.80;;;;;;5104290;28;19908;-52
2022/12/18 10:35:17;;;;;;;;;;;22.70;77.80;;;;;;5109127;28;19918;-52
2022/12/18 10:38:03;;;;;;;;;;;22.70;77.80;;;;;;5114154;28;20305;-51
2022/12/18 10:40:29;;;;;;;;;;;22.70;77.60;;;;;;5114560;28;19930;-50
2022/12/18 10:43:14;;;;;;;;;;;22.80;77.50;;;;;;5100863;28;19964;-50
2022/12/18 10:45:40;;;;;;;;;;;22.80;77.60;;;;;;5092904;28;19921;-53
2022/12/18 10:48:17;;;;;;;;;;;22.80;77.60;;;;;;5102059;28;19956;-52
2022/12/18 10:50:46;;;;;;;;;;;22.80;77.40;;;;;;5094245;28;19914;-51
2022/12/18 10:53:17;;;;;;;;;;;22.90;77.50;;;;;;5104651;28;19912;-49
2022/12/18 10:55:45;;;;;;;;;;;22.90;77.50;;;;;;5094021;28;20381;-53
2022/12/18 10:58:20;;;;;;;;;;;22.90;77.40;;;;;;5114239;28;19943;-53
2022/12/18 11:01:00;;;;;;;;;;;23.00;77.30;;;;;;5094637;28;20362;-52
2022/12/18 11:03:52;;;;;;;;;;;23.00;77.20;;;;;;5093723;28;20298;-52
2022/12/18 11:06:21;;;;;;;;;;;23.00;77.10;;;;;;5099308;28;19920;-53
2022/12/18 11:09:03;;;;;;;;;;;23.10;77.00;;;;;;5102107;28;20236;-52
2022/12/18 11:11:29;;;;;;;;;;;23.10;77.10;;;;;;5087525;28;19965;-51
2022/12/18 11:13:59;;;;;;;;;;;23.10;77.10;;;;;;5102178;28;19998;-53
2022/12/18 11:16:25;;;;;;;;;;;23.10;77.10;;;;;;5080387;28;20046;-53
2022/12/18 11:18:50;;;;;;;;;;;23.10;77.00;;;;;;5082161;28;19916;-51
2022/12/18 11:21:16;;;;;;;;;;;23.10;77.00;;;;;;5089309;28;19922;-50
2022/12/18 11:23:49;;;;;;;;;;;23.10;76.70;;;;;;5093018;28;19918;-53
2022/12/18 11:26:15;;;;;;;;;;;23.10;77.30;;;;;;5093676;28;19916;-51
2022/12/18 11:28:40;;;;;;;;;;;23.10;76.60;;;;;;5075205;28;19930;-50
2022/12/18 11:31:12;;;;;;;;;;;23.10;76.60;;;;;;5091566;28;20373;-50
2022/12/18 11:33:39;;;;;;;;;;;23.10;76.70;;;;;;5077501;28;19952;-51
2022/12/18 11:36:07;;;;;;;;;;;23.10;76.80;;;;;;5075599;28;20351;-50
2022/12/18 11:38:35;;;;;;;;;;;23.10;76.80;;;;;;5097289;28;19955;-54
2022/12/18 11:41:00;;;;;;;;;;;23.10;76.80;;;;;;5092857;28;19916;-49
2022/12/18 11:43:28;;;;;;;;;;;23.10;76.80;;;;;;5095814;28;19915;-52
2022/12/18 11:46:11;;;;;;;;;;;23.20;76.90;;;;;;5096045;28;19916;-48
2022/12/18 11:48:45;;;;;;;;;;;23.20;77.00;;;;;;5096064;28;20278;-50
2022/12/18 11:51:15;;;;;;;;;;;23.20;76.90;;;;;;5094290;28;19913;-51
2022/12/18 11:53:41;;;;;;;;;;;23.20;76.90;;;;;;5090395;28;19912;-53
2022/12/18 11:56:15;;;;;;;;;;;23.20;76.90;;;;;;5095310;28;20346;-51
2022/12/18 11:58:49;;;;;;;;;;;23.20;76.80;;;;;;5095566;28;19908;-50
2022/12/18 12:01:16;;;;;;;;;;;23.30;76.90;;;;;;5094692;28;19912;-48
2022/12/18 12:03:47;;;;;;;;;;;23.30;77.10;;;;;;5096967;28;19908;-52
2022/12/18 12:06:17;;;;;;;;;;;23.20;77.10;;;;;;5092107;28;19965;-50
2022/12/18 12:08:53;;;;;;;;;;;23.20;77.10;;;;;;5094495;28;19912;-52
2022/12/18 12:11:41;;;;;;;;;;;23.20;77.00;;;;;;5096870;28;20262;-51
2022/12/18 12:14:16;;;;;;;;;;;23.20;77.10;;;;;;5084373;28;19912;-54
2022/12/18 12:16:47;;;;;;;;;;;23.10;77.20;;;;;;5097985;28;19919;-53
2022/12/18 12:19:27;;;;;;;;;;;23.10;77.30;;;;;;5091293;28;19920;-53
2022/12/18 12:22:03;;;;;;;;;;;23.10;77.20;;;;;;5092542;28;19916;-50
2022/12/18 12:24:44;;;;;;;;;;;23.10;77.30;;;;;;5100319;28;19939;-50
2022/12/18 12:27:25;;;;;;;;;;;23.10;77.30;;;;;;5096120;28;19959;-49
2022/12/18 12:30:00;;;;;;;;;;;23.10;77.40;;;;;;5091718;28;20282;-55
2022/12/18 12:32:32;;;;;;;;;;;23.20;77.40;;;;;;5092536;28;20322;-52
2022/12/18 12:35:10;;;;;;;;;;;23.20;77.20;;;;;;5094600;28;19962;-49
2022/12/18 12:37:49;;;;;;;;;;;23.20;77.40;;;;;;5074967;28;21691;-54
2022/12/18 12:40:21;;;;;;;;;;;23.20;77.30;;;;;;5075825;28;19913;-49
2022/12/18 12:43:12;;;;;;;;;;;23.30;77.30;;;;;;5091800;28;19908;-50
2022/12/18 12:46:07;;;;;;;;;;;23.30;77.10;;;;;;5094713;28;20017;-50
2022/12/18 12:48:38;;;;;;;;;;;23.40;77.40;;;;;;5077733;28;19908;-50
2022/12/18 12:51:08;;;;;;;;;;;23.40;77.10;;;;;;5094093;28;19908;-51
2022/12/18 12:53:36;;;;;;;;;;;23.40;77.20;;;;;;5096061;28;19955;-52
2022/12/18 12:56:02;;;;;;;;;;;23.30;77.10;;;;;;5095685;28;19919;-52
2022/12/18 12:58:31;;;;;;;;;;;23.30;77.20;;;;;;5076657;28;19908;-51
2022/12/18 13:01:03;;;;;;;;;;;23.10;73.80;;;;;;5091607;28;19912;-53
2022/12/18 13:03:32;;;;;;;;;;;23.10;76.00;;;;;;5092366;28;19916;-50
2022/12/18 13:06:03;;;;;;;;;;;23.10;76.80;;;;;;5105258;28;19916;-48
2022/12/18 13:08:30;;;;;;;;;;;23.10;76.90;;;;;;5101481;28;20278;-49
2022/12/18 13:12:55;;;;;;;;;;;23.10;76.90;;;;;;5092617;28;19955;-53
2022/12/18 13:13:53;;;;;;;;;;;23.10;77.10;;;;;;5091404;28;19966;-52
2022/12/18 13:16:20;;;;;;;;;;;23.00;77.20;;;;;;5074804;28;20363;-52
2022/12/18 13:18:52;;;;;;;;;;;23.00;77.20;;;;;;5090706;28;20338;-52
2022/12/18 13:21:21;;;;;;;;;;;22.90;77.30;;;;;;5106906;28;20346;-51
2022/12/18 13:23:47;;;;;;;;;;;22.70;75.70;;;;;;5102597;28;19919;-50
2022/12/18 13:26:18;;;;;;;;;;;22.70;77.10;;;;;;5109270;28;19923;-52
2022/12/18 13:28:47;;;;;;;;;;;22.80;77.40;;;;;;5115528;28;19908;-52
2022/12/18 13:31:13;;;;;;;;;;;22.80;77.40;;;;;;5095426;28;19956;-49
2022/12/18 13:33:39;;;;;;;;;;;22.80;77.30;;;;;;5094321;28;19912;-50
2022/12/18 13:36:15;;;;;;;;;;;22.80;77.30;;;;;;5111157;28;20279;-52
2022/12/18 13:38:41;;;;;;;;;;;22.80;77.40;;;;;;5115632;28;20381;-52
2022/12/18 13:41:07;;;;;;;;;;;22.80;77.40;;;;;;5110853;28;19907;-52
2022/12/18 13:43:39;;;;;;;;;;;22.80;77.30;;;;;;5100714;28;19908;-48
2022/12/18 13:46:17;;;;;;;;;;;22.80;77.30;;;;;;5103160;28;19916;-51
2022/12/18 13:48:49;;;;;;;;;;;22.80;77.20;;;;;;5092826;28;20285;-53
2022/12/18 13:51:16;;;;;;;;;;;22.80;77.20;;;;;;5086925;28;19908;-46
2022/12/18 13:53:44;;;;;;;;;;;22.80;77.20;;;;;;5092051;28;19908;-52
2022/12/18 13:56:14;;;;;;;;;;;22.80;77.30;;;;;;5074628;28;20374;-53
2022/12/18 13:58:40;;;;;;;;;;;22.40;72.80;;;;;;5097826;28;19912;-49
2022/12/18 14:01:15;;;;;;;;;;;22.60;76.00;;;;;;5102979;28;19918;-53
2022/12/18 14:03:41;;;;;;;;;;;22.70;76.50;;;;;;5088144;28;20302;-52
2022/12/18 14:06:07;;;;;;;;;;;22.80;76.60;;;;;;5113720;28;19927;-51
2022/12/18 14:08:35;;;;;;;;;;;22.80;76.60;;;;;;5096496;28;19915;-51
2022/12/18 14:11:01;;;;;;;;;;;22.90;76.50;;;;;;5094391;28;19912;-52
2022/12/18 14:13:31;;;;;;;;;;;22.90;76.40;;;;;;5095865;28;19912;-50
2022/12/18 14:15:57;;;;;;;;;;;23.00;76.40;;;;;;5088402;28;20422;-51
2022/12/18 14:18:22;;;;;;;;;;;23.10;76.40;;;;;;5093245;28;19916;-49
2022/12/18 14:20:49;;;;;;;;;;;23.10;76.30;;;;;;5093360;28;20267;-53
2022/12/18 14:23:33;;;;;;;;;;;23.20;76.20;;;;;;5098395;28;19935;-52
2022/12/18 14:26:00;;;;;;;;;;;23.20;76.20;;;;;;5110464;28;19919;-51
2022/12/18 14:28:26;;;;;;;;;;;23.20;76.20;;;;;;5074489;28;19916;-52
2022/12/18 14:30:51;;;;;;;;;;;23.20;76.10;;;;;;5096432;28;19913;-50